Time,TemperatureF,DewpointF,PressureIn,WindDirection,WindDirectionDegrees,WindSpeedMPH,WindSpeedGustMPH,Humidity,HourlyPrecipIn,Conditions,Clouds,dailyrainin,SoftwareType,DateUTC
2013-10-04 00:02:00,32.2,29.6,30.46,West,261,0.0,0.0,90,0.00,,CLR,0.18,VWS V14.01,2013-10-04 06:02:00,
2013-10-04 00:07:00,32.2,29.6,30.46,West,261,0.0,1.0,90,0.00,,CLR,0.00,VWS V14.01,2013-10-04 06:07:00,
2013-10-04 00:12:00,32.2,29.6,30.46,West,261,0.0,0.0,90,0.00,,CLR,0.00,VWS V14.01,2013-10-04 06:12:00,
2013-10-04 00:17:00,32.2,29.6,30.46,West,261,0.0,0.0,90,0.00,,CLR,0.00,VWS V14.01,2013-10-04 06:17:00,
2013-10-04 00:22:00,32.2,29.9,30.47,West,261,0.0,0.0,91,0.00,,CLR,0.00,VWS V14.01,2013-10-04 06:22:00,
2013-10-04 00:27:00,32.2,29.9,30.47,West,261,0.0,0.0,91,0.00,,CLR,0.00,VWS V14.01,2013-10-04 06:27:00,
2013-10-04 00:32:00,32.2,29.9,30.47,West,261,0.0,0.0,91,0.00,,CLR,0.00,VWS V14.01,2013-10-04 06:32:00,
2013-10-04 00:37:00,32.2,29.9,30.48,West,261,0.0,0.0,91,0.00,,CLR,0.00,VWS V14.01,2013-10-04 06:37:00,
2013-10-04 00:42:00,32.2,29.9,30.48,West,261,0.0,0.0,91,0.00,,CLR,0.00,VWS V14.01,2013-10-04 06:42:00,
2013-10-04 00:47:00,32.2,29.9,30.48,West,261,0.0,0.0,91,0.00,,CLR,0.00,VWS V14.01,2013-10-04 06:47:00,
2013-10-04 00:52:00,32.2,29.9,30.48,West,261,0.0,0.0,91,0.00,,CLR,0.00,VWS V14.01,2013-10-04 06:52:00,
2013-10-04 00:57:00,32.1,29.8,30.48,West,261,0.0,0.0,91,0.00,,CLR,0.00,VWS V14.01,2013-10-04 06:57:00,
2013-10-04 01:03:00,32.1,29.8,30.48,West,261,0.0,0.0,91,0.00,,CLR,0.00,VWS V14.01,2013-10-04 07:03:00,
2013-10-04 01:08:00,32.1,29.8,30.48,West,261,0.0,0.0,91,0.00,,CLR,0.00,VWS V14.01,2013-10-04 07:08:00,
2013-10-04 01:13:00,32.1,29.8,30.48,West,261,0.0,0.0,91,0.00,,CLR,0.00,VWS V14.01,2013-10-04 07:13:00,
2013-10-04 01:18:00,32.1,29.8,30.48,West,261,0.0,0.0,91,0.00,,CLR,0.00,VWS V14.01,2013-10-04 07:18:00,
2013-10-04 01:23:00,32.1,29.8,30.48,West,261,0.0,0.0,91,0.00,,CLR,0.00,VWS V14.01,2013-10-04 07:23:00,
2013-10-04 01:28:00,32.1,29.8,30.48,West,261,0.0,0.0,91,0.00,,CLR,0.00,VWS V14.01,2013-10-04 07:28:00,
2013-10-04 01:33:00,32.1,29.8,30.48,West,261,0.0,0.0,91,0.00,,CLR,0.00,VWS V14.01,2013-10-04 07:33:00,
2013-10-04 01:38:00,32.1,29.8,30.48,West,261,0.0,0.0,91,0.00,,CLR,0.00,VWS V14.01,2013-10-04 07:38:00,
2013-10-04 01:43:00,32.2,29.9,30.48,West,261,0.0,0.0,91,0.00,,CLR,0.00,VWS V14.01,2013-10-04 07:43:00,
2013-10-04 01:48:00,32.2,29.9,30.49,West,261,0.0,0.0,91,0.00,,CLR,0.00,VWS V14.01,2013-10-04 07:48:00,
2013-10-04 01:53:00,32.2,29.9,30.49,West,261,0.0,0.0,91,0.00,,CLR,0.00,VWS V14.01,2013-10-04 07:53:00,
2013-10-04 01:58:00,32.1,29.8,30.49,West,261,0.0,0.0,91,0.00,,CLR,0.00,VWS V14.01,2013-10-04 07:58:00,
2013-10-04 02:03:00,32.1,29.8,30.49,West,261,0.0,0.0,91,0.00,,CLR,0.00,VWS V14.01,2013-10-04 08:03:00,
2013-10-04 02:08:00,32.1,29.8,30.49,West,261,0.0,0.0,91,0.00,,CLR,0.00,VWS V14.01,2013-10-04 08:08:00,
2013-10-04 02:13:00,32.1,29.8,30.49,West,275,0.0,0.0,91,0.00,,CLR,0.00,VWS V14.01,2013-10-04 08:13:00,
2013-10-04 02:18:00,32.2,29.9,30.49,West,275,0.0,0.0,91,0.00,,CLR,0.00,VWS V14.01,2013-10-04 08:18:00,
2013-10-04 02:23:00,32.1,29.8,30.49,West,275,0.0,0.0,91,0.00,,CLR,0.00,VWS V14.01,2013-10-04 08:23:00,
2013-10-04 02:29:00,32.1,29.8,30.49,West,275,0.0,0.0,91,0.00,,CLR,0.00,VWS V14.01,2013-10-04 08:29:00,
2013-10-04 02:34:00,32.1,29.8,30.49,West,275,0.0,0.0,91,0.00,,CLR,0.00,VWS V14.01,2013-10-04 08:34:00,
2013-10-04 02:39:00,32.1,29.8,30.49,West,275,0.0,0.0,91,0.00,,CLR,0.00,VWS V14.01,2013-10-04 08:39:00,
2013-10-04 02:44:00,31.9,29.6,30.49,West,275,0.0,0.0,91,0.00,,CLR,0.00,VWS V14.01,2013-10-04 08:44:00,
2013-10-04 02:49:00,31.9,29.6,30.49,West,275,0.0,0.0,91,0.00,,CLR,0.00,VWS V14.01,2013-10-04 08:49:00,
2013-10-04 02:54:00,31.9,29.6,30.49,West,275,0.0,0.0,91,0.00,,CLR,0.00,VWS V14.01,2013-10-04 08:54:00,
2013-10-04 02:59:00,31.9,29.6,30.49,West,275,0.0,0.0,91,0.00,,CLR,0.00,VWS V14.01,2013-10-04 08:59:00,
2013-10-04 03:05:00,31.9,29.6,30.49,West,275,0.0,0.0,91,0.00,,CLR,0.00,VWS V14.01,2013-10-04 09:05:00,
2013-10-04 03:10:00,31.9,29.6,30.49,West,275,0.0,0.0,91,0.00,,CLR,0.00,VWS V14.01,2013-10-04 09:10:00,
2013-10-04 03:15:00,31.9,29.6,30.49,West,275,0.0,0.0,91,0.00,,CLR,0.00,VWS V14.01,2013-10-04 09:15:00,
2013-10-04 03:20:00,31.8,29.5,30.50,West,275,0.0,0.0,91,0.00,,CLR,0.00,VWS V14.01,2013-10-04 09:20:00,
2013-10-04 03:25:00,31.8,29.5,30.50,West,275,0.0,0.0,91,0.00,,CLR,0.00,VWS V14.01,2013-10-04 09:25:00,
2013-10-04 03:30:00,31.8,29.5,30.50,West,275,0.0,0.0,91,0.00,,CLR,0.00,VWS V14.01,2013-10-04 09:30:00,
2013-10-04 03:35:00,31.8,29.5,30.51,West,275,0.0,0.0,91,0.00,,CLR,0.00,VWS V14.01,2013-10-04 09:35:00,
2013-10-04 03:40:00,31.8,29.5,30.51,West,275,0.0,0.0,91,0.00,,CLR,0.00,VWS V14.01,2013-10-04 09:40:00,
2013-10-04 03:45:00,31.9,29.6,30.51,West,275,0.0,0.0,91,0.00,,CLR,0.00,VWS V14.01,2013-10-04 09:45:00,
2013-10-04 03:50:00,31.9,29.6,30.51,West,275,0.0,0.0,91,0.00,,CLR,0.00,VWS V14.01,2013-10-04 09:50:00,
2013-10-04 03:55:00,31.9,29.6,30.51,West,275,0.0,0.0,91,0.00,,CLR,0.00,VWS V14.01,2013-10-04 09:55:00,
2013-10-04 04:00:00,31.9,29.6,30.51,West,275,0.0,0.0,91,0.00,,CLR,0.00,VWS V14.01,2013-10-04 10:00:00,
2013-10-04 04:05:00,31.9,29.6,30.51,West,275,0.0,0.0,91,0.00,,CLR,0.00,VWS V14.01,2013-10-04 10:05:00,
2013-10-04 04:10:00,31.8,29.5,30.51,West,275,0.0,0.0,91,0.00,,CLR,0.00,VWS V14.01,2013-10-04 10:10:00,
2013-10-04 04:15:00,31.8,29.5,30.51,West,275,0.0,0.0,91,0.00,,CLR,0.00,VWS V14.01,2013-10-04 10:15:00,
2013-10-04 04:21:00,31.8,29.5,30.52,West,275,0.0,0.0,91,0.00,,CLR,0.00,VWS V14.01,2013-10-04 10:21:00,
2013-10-04 04:26:00,31.8,29.5,30.52,West,275,0.0,0.0,91,0.00,,CLR,0.00,VWS V14.01,2013-10-04 10:26:00,
2013-10-04 04:31:00,31.8,29.5,30.52,West,275,0.0,0.0,91,0.00,,CLR,0.00,VWS V14.01,2013-10-04 10:31:00,
2013-10-04 04:36:00,31.8,29.5,30.52,West,275,0.0,0.0,91,0.00,,CLR,0.00,VWS V14.01,2013-10-04 10:36:00,
2013-10-04 04:41:00,31.8,29.5,30.52,West,275,0.0,0.0,91,0.00,,CLR,0.00,VWS V14.01,2013-10-04 10:41:00,
2013-10-04 04:46:00,31.6,29.3,30.52,West,275,0.0,0.0,91,0.00,,CLR,0.00,VWS V14.01,2013-10-04 10:46:00,
2013-10-04 04:51:00,31.6,29.3,30.52,West,275,0.0,0.0,91,0.00,,CLR,0.00,VWS V14.01,2013-10-04 10:51:00,
2013-10-04 04:56:00,31.6,29.3,30.52,West,275,0.0,0.0,91,0.00,,CLR,0.00,VWS V14.01,2013-10-04 10:56:00,
2013-10-04 05:01:00,31.5,29.2,30.52,West,275,0.0,0.0,91,0.00,,CLR,0.00,VWS V14.01,2013-10-04 11:01:00,
2013-10-04 05:06:00,31.5,29.2,30.52,West,275,0.0,0.0,91,0.00,,CLR,0.00,VWS V14.01,2013-10-04 11:06:00,
2013-10-04 05:11:00,31.5,29.2,30.52,West,275,0.0,0.0,91,0.00,,CLR,0.00,VWS V14.01,2013-10-04 11:11:00,
2013-10-04 05:16:00,31.5,29.2,30.52,West,275,0.0,0.0,91,0.00,,CLR,0.00,VWS V14.01,2013-10-04 11:16:00,
2013-10-04 05:21:00,31.6,29.3,30.52,West,275,0.0,0.0,91,0.00,,CLR,0.00,VWS V14.01,2013-10-04 11:21:00,
2013-10-04 05:26:00,31.6,29.3,30.52,West,275,0.0,0.0,91,0.00,,CLR,0.00,VWS V14.01,2013-10-04 11:26:00,
2013-10-04 05:31:00,31.6,29.3,30.52,West,275,0.0,0.0,91,0.00,,CLR,0.00,VWS V14.01,2013-10-04 11:31:00,
2013-10-04 05:36:00,31.5,29.2,30.52,West,275,0.0,0.0,91,0.00,,CLR,0.00,VWS V14.01,2013-10-04 11:36:00,
2013-10-04 05:41:00,31.5,29.2,30.52,West,275,0.0,0.0,91,0.00,,CLR,0.00,VWS V14.01,2013-10-04 11:41:00,
2013-10-04 05:46:00,31.3,28.7,30.52,West,275,0.0,0.0,90,0.00,,CLR,0.00,VWS V14.01,2013-10-04 11:46:00,
2013-10-04 05:51:00,31.2,28.6,30.52,West,275,0.0,0.0,90,0.00,,CLR,0.00,VWS V14.01,2013-10-04 11:51:00,
2013-10-04 05:56:00,30.9,28.3,30.52,West,275,0.0,0.0,90,0.00,,CLR,0.00,VWS V14.01,2013-10-04 11:56:00,
2013-10-04 06:01:00,30.7,28.1,30.52,West,275,0.0,0.0,90,0.00,,CLR,0.00,VWS V14.01,2013-10-04 12:01:00,
2013-10-04 06:06:00,30.6,28.0,30.53,West,275,0.0,0.0,90,0.00,,CLR,0.00,VWS V14.01,2013-10-04 12:06:00,
2013-10-04 06:12:00,30.4,27.8,30.53,West,275,0.0,0.0,90,0.00,,CLR,0.00,VWS V14.01,2013-10-04 12:12:00,
2013-10-04 06:17:00,30.4,27.8,30.53,West,275,0.0,0.0,90,0.00,,CLR,0.00,VWS V14.01,2013-10-04 12:17:00,
2013-10-04 06:22:00,30.6,28.0,30.55,West,275,0.0,0.0,90,0.00,,CLR,0.00,VWS V14.01,2013-10-04 12:22:00,
2013-10-04 06:27:00,30.7,28.1,30.55,West,275,0.0,0.0,90,0.00,,CLR,0.00,VWS V14.01,2013-10-04 12:27:00,
2013-10-04 06:32:00,30.7,28.4,30.55,West,275,0.0,0.0,91,0.00,,CLR,0.00,VWS V14.01,2013-10-04 12:32:00,
2013-10-04 06:37:00,30.9,28.6,30.55,West,275,0.0,0.0,91,0.00,,CLR,0.00,VWS V14.01,2013-10-04 12:37:00,
2013-10-04 06:42:00,31.0,28.7,30.55,West,275,0.0,0.0,91,0.00,,CLR,0.00,VWS V14.01,2013-10-04 12:42:00,
2013-10-04 06:47:00,31.0,28.7,30.55,West,275,0.0,0.0,91,0.00,,CLR,0.00,VWS V14.01,2013-10-04 12:47:00,
2013-10-04 06:52:00,31.2,28.9,30.55,West,275,0.0,0.0,91,0.00,,CLR,0.00,VWS V14.01,2013-10-04 12:52:00,
2013-10-04 06:57:00,31.2,28.9,30.55,West,275,0.0,0.0,91,0.00,,CLR,0.00,VWS V14.01,2013-10-04 12:57:00,
2013-10-04 07:02:00,31.2,28.9,30.55,West,275,0.0,0.0,91,0.00,,CLR,0.00,VWS V14.01,2013-10-04 13:02:00,
2013-10-04 07:07:00,31.2,28.9,30.55,West,275,0.0,0.0,91,0.00,,CLR,0.00,VWS V14.01,2013-10-04 13:07:00,
2013-10-04 07:12:00,31.2,28.9,30.55,West,275,0.0,0.0,91,0.00,,CLR,0.00,VWS V14.01,2013-10-04 13:12:00,
2013-10-04 07:17:00,31.0,28.7,30.55,West,275,0.0,0.0,91,0.00,,CLR,0.00,VWS V14.01,2013-10-04 13:17:00,
2013-10-04 07:22:00,30.9,28.3,30.55,West,275,0.0,0.0,90,0.00,,CLR,0.00,VWS V14.01,2013-10-04 13:22:00,
2013-10-04 07:27:00,30.7,28.1,30.55,West,275,0.0,0.0,90,0.00,,CLR,0.00,VWS V14.01,2013-10-04 13:27:00,
2013-10-04 07:32:00,30.4,27.8,30.55,West,275,0.0,0.0,90,0.00,,CLR,0.00,VWS V14.01,2013-10-04 13:32:00,
2013-10-04 07:37:00,30.1,27.3,30.57,West,275,0.0,0.0,89,0.00,,CLR,0.00,VWS V14.01,2013-10-04 13:37:00,
2013-10-04 07:42:00,29.8,27.0,30.57,West,275,0.0,0.0,89,0.00,,CLR,0.00,VWS V14.01,2013-10-04 13:42:00,
2013-10-04 07:47:00,29.5,26.7,30.57,West,275,0.0,0.0,89,0.00,,CLR,0.00,VWS V14.01,2013-10-04 13:47:00,
2013-10-04 07:52:00,29.4,26.6,30.58,West,275,0.0,0.0,89,0.00,,CLR,0.00,VWS V14.01,2013-10-04 13:52:00,
2013-10-04 07:57:00,29.3,26.5,30.58,West,275,0.0,0.0,89,0.00,,CLR,0.00,VWS V14.01,2013-10-04 13:57:00,
2013-10-04 08:03:00,29.1,26.3,30.58,West,275,0.0,0.0,89,0.00,,CLR,0.00,VWS V14.01,2013-10-04 14:03:00,
2013-10-04 08:08:00,29.1,26.3,30.58,West,275,0.0,0.0,89,0.00,,CLR,0.00,VWS V14.01,2013-10-04 14:08:00,
2013-10-04 08:13:00,29.0,26.2,30.58,West,275,0.0,0.0,89,0.00,,CLR,0.00,VWS V14.01,2013-10-04 14:13:00,
2013-10-04 08:18:00,29.1,26.3,30.58,West,275,0.0,0.0,89,0.00,,CLR,0.00,VWS V14.01,2013-10-04 14:18:00,
2013-10-04 08:23:00,29.1,26.3,30.58,West,275,0.0,0.0,89,0.00,,CLR,0.00,VWS V14.01,2013-10-04 14:23:00,
2013-10-04 08:28:00,29.1,26.3,30.58,West,275,0.0,0.0,89,0.00,,CLR,0.00,VWS V14.01,2013-10-04 14:28:00,
2013-10-04 08:33:00,29.1,26.3,30.57,West,275,0.0,0.0,89,0.00,,CLR,0.00,VWS V14.01,2013-10-04 14:33:00,
2013-10-04 08:38:00,29.1,26.3,30.57,West,275,0.0,0.0,89,0.00,,CLR,0.00,VWS V14.01,2013-10-04 14:38:00,
2013-10-04 08:43:00,29.1,26.3,30.57,West,275,0.0,0.0,89,0.00,,CLR,0.00,VWS V14.01,2013-10-04 14:43:00,
2013-10-04 08:48:00,29.3,26.5,30.58,West,275,0.0,0.0,89,0.00,,CLR,0.00,VWS V14.01,2013-10-04 14:48:00,
2013-10-04 08:53:00,29.1,26.0,30.58,West,275,0.0,0.0,88,0.00,,CLR,0.00,VWS V14.01,2013-10-04 14:53:00,
2013-10-04 08:58:00,29.1,26.3,30.58,West,275,0.0,0.0,89,0.00,,CLR,0.00,VWS V14.01,2013-10-04 14:58:00,
2013-10-04 09:03:00,29.3,26.5,30.58,West,275,0.0,0.0,89,0.00,,CLR,0.00,VWS V14.01,2013-10-04 15:03:00,
2013-10-04 09:08:00,29.3,26.5,30.58,West,275,0.0,0.0,89,0.00,,CLR,0.00,VWS V14.01,2013-10-04 15:08:00,
2013-10-04 09:13:00,29.3,26.2,30.58,West,275,0.0,0.0,88,0.00,,CLR,0.00,VWS V14.01,2013-10-04 15:13:00,
2013-10-04 09:19:00,29.3,26.5,30.60,West,275,0.0,0.0,89,0.00,,CLR,0.00,VWS V14.01,2013-10-04 15:19:00,
2013-10-04 09:24:00,29.4,26.6,30.60,West,275,0.0,0.0,89,0.00,,CLR,0.00,VWS V14.01,2013-10-04 15:24:00,
2013-10-04 09:29:00,29.4,26.6,30.60,West,275,0.0,0.0,89,0.00,,CLR,0.00,VWS V14.01,2013-10-04 15:29:00,
2013-10-04 09:34:00,29.5,26.7,30.59,West,275,0.0,0.0,89,0.00,,CLR,0.00,VWS V14.01,2013-10-04 15:34:00,
2013-10-04 09:39:00,29.7,26.9,30.59,West,275,0.0,0.0,89,0.00,,CLR,0.00,VWS V14.01,2013-10-04 15:39:00,
2013-10-04 09:44:00,30.0,27.4,30.59,West,275,0.0,0.0,90,0.00,,CLR,0.00,VWS V14.01,2013-10-04 15:44:00,
2013-10-04 09:49:00,30.1,27.5,30.60,West,275,0.0,0.0,90,0.00,,CLR,0.00,VWS V14.01,2013-10-04 15:49:00,
2013-10-04 09:54:00,30.4,27.8,30.60,West,275,0.0,0.0,90,0.00,,CLR,0.00,VWS V14.01,2013-10-04 15:54:00,
2013-10-04 09:59:00,30.9,28.6,30.60,West,275,0.0,0.0,91,0.00,,CLR,0.00,VWS V14.01,2013-10-04 15:59:00,
2013-10-04 10:04:00,31.5,29.2,30.60,West,275,0.0,0.0,91,0.00,,CLR,0.00,VWS V14.01,2013-10-04 16:04:00,
2013-10-04 10:09:00,31.8,29.5,30.60,West,275,0.0,0.0,91,0.00,,CLR,0.00,VWS V14.01,2013-10-04 16:09:00,
2013-10-04 10:14:00,32.1,29.8,30.60,West,275,0.0,0.0,91,0.00,,CLR,0.00,VWS V14.01,2013-10-04 16:14:00,
2013-10-04 10:19:00,32.2,29.9,30.59,West,275,0.0,0.0,91,0.00,,CLR,0.00,VWS V14.01,2013-10-04 16:19:00,
2013-10-04 10:24:00,32.4,30.1,30.59,West,275,0.0,0.0,91,0.00,,CLR,0.00,VWS V14.01,2013-10-04 16:24:00,
2013-10-04 10:29:00,32.4,29.8,30.59,West,275,0.0,0.0,90,0.00,,CLR,0.00,VWS V14.01,2013-10-04 16:29:00,
2013-10-04 10:34:00,32.5,29.6,30.59,West,275,0.0,0.0,89,0.00,,CLR,0.00,VWS V14.01,2013-10-04 16:34:00,
2013-10-04 10:40:00,32.5,29.4,30.59,West,275,0.0,0.0,88,0.00,,CLR,0.00,VWS V14.01,2013-10-04 16:40:00,
2013-10-04 10:45:00,32.7,28.7,30.59,West,275,0.0,0.0,85,0.00,,CLR,0.00,VWS V14.01,2013-10-04 16:45:00,
2013-10-04 10:50:00,32.9,29.5,30.58,West,275,0.0,0.0,87,0.00,,CLR,0.00,VWS V14.01,2013-10-04 16:50:00,
2013-10-04 10:55:00,33.2,29.5,30.58,West,275,0.0,0.0,86,0.00,,CLR,0.00,VWS V14.01,2013-10-04 16:55:00,
2013-10-04 11:00:00,33.2,29.2,30.58,ENE,65,0.0,0.0,85,0.00,,CLR,0.00,VWS V14.01,2013-10-04 17:00:00,
2013-10-04 11:05:00,33.4,29.1,30.58,East,86,0.0,0.0,84,0.00,,CLR,0.00,VWS V14.01,2013-10-04 17:05:00,
2013-10-04 11:10:00,33.5,28.9,30.58,NE,41,0.0,0.0,83,0.00,,CLR,0.00,VWS V14.01,2013-10-04 17:10:00,
2013-10-04 11:15:00,33.8,28.3,30.58,NE,40,0.0,0.0,80,0.00,,CLR,0.00,VWS V14.01,2013-10-04 17:15:00,
2013-10-04 11:20:00,34.1,29.2,30.57,North,355,1.0,1.0,82,0.00,,CLR,0.00,VWS V14.01,2013-10-04 17:20:00,
2013-10-04 11:25:00,34.6,30.0,30.57,North,355,0.0,0.0,83,0.00,,CLR,0.00,VWS V14.01,2013-10-04 17:25:00,
2013-10-04 11:30:00,34.7,29.8,30.57,NNE,32,0.0,0.0,82,0.00,,CLR,0.00,VWS V14.01,2013-10-04 17:30:00,
2013-10-04 11:35:00,34.9,30.3,30.58,NNE,30,0.0,0.0,83,0.00,,CLR,0.00,VWS V14.01,2013-10-04 17:35:00,
2013-10-04 12:01:00,35.2,30.9,30.58,North,355,0.0,0.0,84,0.00,,CLR,0.00,VWS V14.01,2013-10-04 18:01:00,
2013-10-04 12:06:00,35.8,31.5,30.57,North,355,0.0,0.0,84,0.00,,CLR,0.00,VWS V14.01,2013-10-04 18:06:00,
2013-10-04 12:11:00,36.2,31.5,30.57,North,355,0.0,0.0,83,0.01,,CLR,0.01,VWS V14.01,2013-10-04 18:11:00,
2013-10-04 12:16:00,36.5,30.9,30.57,North,355,0.0,0.0,80,0.01,,CLR,0.01,VWS V14.01,2013-10-04 18:16:00,
2013-10-04 12:21:00,36.6,30.7,30.57,NNW,346,0.0,0.0,79,0.01,,CLR,0.01,VWS V14.01,2013-10-04 18:21:00,
2013-10-04 12:26:00,36.6,31.0,30.57,NNW,346,0.0,0.0,80,0.01,,CLR,0.01,VWS V14.01,2013-10-04 18:26:00,
2013-10-04 12:31:00,36.6,31.6,30.57,NNW,345,0.0,0.0,82,0.02,,CLR,0.02,VWS V14.01,2013-10-04 18:31:00,
2013-10-04 12:36:00,36.6,31.9,30.56,NNW,345,0.0,0.0,83,0.02,,CLR,0.02,VWS V14.01,2013-10-04 18:36:00,
2013-10-04 12:41:00,36.8,31.8,30.56,NNW,346,0.0,0.0,82,0.02,,CLR,0.02,VWS V14.01,2013-10-04 18:41:00,
2013-10-04 12:46:00,36.9,31.6,30.56,NNW,346,0.0,0.0,81,0.02,,CLR,0.02,VWS V14.01,2013-10-04 18:46:00,
2013-10-04 12:51:00,37.0,32.3,30.57,NNW,346,0.0,0.0,83,0.02,,CLR,0.02,VWS V14.01,2013-10-04 18:51:00,
2013-10-04 12:56:00,37.3,32.9,30.57,NNW,346,0.0,0.0,84,0.03,,CLR,0.03,VWS V14.01,2013-10-04 18:56:00,
2013-10-04 13:01:00,37.5,32.8,30.57,NNW,346,0.0,0.0,83,0.04,,CLR,0.04,VWS V14.01,2013-10-04 19:01:00,
2013-10-04 13:06:00,37.8,32.2,30.55,NNW,346,0.0,0.0,80,0.04,,CLR,0.04,VWS V14.01,2013-10-04 19:06:00,
2013-10-04 13:11:00,38.2,32.6,30.55,NNW,346,0.0,0.0,80,0.04,,CLR,0.05,VWS V14.01,2013-10-04 19:11:00,
2013-10-04 13:16:00,38.8,32.5,30.55,NNW,346,0.0,0.0,78,0.04,,CLR,0.05,VWS V14.01,2013-10-04 19:16:00,
2013-10-04 13:21:00,38.8,32.9,30.55,NNW,346,0.0,0.0,79,0.05,,CLR,0.06,VWS V14.01,2013-10-04 19:21:00,
2013-10-04 13:26:00,38.8,32.5,30.55,NNW,346,0.0,0.0,78,0.06,,CLR,0.07,VWS V14.01,2013-10-04 19:26:00,
2013-10-04 13:31:00,39.1,33.8,30.55,NNW,346,0.0,0.0,81,0.06,,CLR,0.08,VWS V14.01,2013-10-04 19:31:00,
2013-10-04 13:37:00,39.2,32.6,30.54,NNW,346,0.0,0.0,77,0.07,,CLR,0.09,VWS V14.01,2013-10-04 19:37:00,
2013-10-04 13:42:00,39.6,32.3,30.54,NNW,345,0.0,0.0,75,0.08,,CLR,0.10,VWS V14.01,2013-10-04 19:42:00,
2013-10-04 13:47:00,39.9,33.3,30.54,NNW,346,0.0,0.0,77,0.09,,CLR,0.11,VWS V14.01,2013-10-04 19:47:00,
2013-10-04 13:52:00,40.2,33.9,30.52,NNW,346,0.0,1.0,78,0.10,,CLR,0.12,VWS V14.01,2013-10-04 19:52:00,
2013-10-04 13:57:00,40.5,33.5,30.52,NNW,346,0.0,0.0,76,0.11,,CLR,0.13,VWS V14.01,2013-10-04 19:57:00,
2013-10-04 14:02:00,40.1,32.5,30.52,NNW,346,0.0,0.0,74,0.11,,CLR,0.14,VWS V14.01,2013-10-04 20:02:00,
2013-10-04 14:07:00,39.8,33.2,30.50,WNW,302,0.0,3.0,77,0.11,,CLR,0.15,VWS V14.01,2013-10-04 20:07:00,
2013-10-04 14:12:00,39.9,33.6,30.50,WNW,302,0.0,0.0,78,0.12,,CLR,0.16,VWS V14.01,2013-10-04 20:12:00,
2013-10-04 14:17:00,40.3,33.7,30.50,ESE,113,0.0,1.0,77,0.11,,CLR,0.16,VWS V14.01,2013-10-04 20:17:00,
2013-10-04 14:22:00,40.3,33.3,30.49,North,9,0.0,0.0,76,0.11,,CLR,0.17,VWS V14.01,2013-10-04 20:22:00,
2013-10-04 14:27:00,40.1,33.2,30.49,North,9,0.0,1.0,76,0.11,,CLR,0.18,VWS V14.01,2013-10-04 20:27:00,
2013-10-04 14:32:00,39.2,32.9,30.49,North,9,0.0,0.0,78,0.10,,CLR,0.18,VWS V14.01,2013-10-04 20:32:00,
2013-10-04 14:37:00,38.3,32.4,30.50,North,9,0.0,1.0,79,0.11,,CLR,0.19,VWS V14.01,2013-10-04 20:37:00,
2013-10-04 14:42:00,37.8,32.2,30.50,North,9,0.0,0.0,80,0.10,,CLR,0.19,VWS V14.01,2013-10-04 20:42:00,
2013-10-04 14:47:00,37.2,32.5,30.50,North,9,0.0,0.0,83,0.09,,CLR,0.19,VWS V14.01,2013-10-04 20:47:00,
2013-10-04 14:52:00,36.9,32.5,30.51,North,9,0.0,0.0,84,0.08,,CLR,0.19,VWS V14.01,2013-10-04 20:52:00,
2013-10-04 14:57:00,36.8,31.8,30.51,East,84,0.0,0.0,82,0.07,,CLR,0.19,VWS V14.01,2013-10-04 20:57:00,
2013-10-04 15:02:00,36.6,32.2,30.51,East,84,0.0,0.0,84,0.07,,CLR,0.20,VWS V14.01,2013-10-04 21:02:00,
2013-10-04 15:07:00,36.5,32.1,30.50,East,84,0.0,0.0,84,0.06,,CLR,0.20,VWS V14.01,2013-10-04 21:07:00,
2013-10-04 15:12:00,36.3,32.5,30.50,East,84,0.0,0.0,86,0.05,,CLR,0.20,VWS V14.01,2013-10-04 21:12:00,
2013-10-04 15:17:00,36.5,32.7,30.50,East,84,0.0,0.0,86,0.04,,CLR,0.20,VWS V14.01,2013-10-04 21:17:00,
2013-10-04 15:22:00,36.8,33.6,30.49,East,85,0.0,2.0,88,0.03,,CLR,0.20,VWS V14.01,2013-10-04 21:22:00,
2013-10-04 15:27:00,37.0,33.2,30.49,NNE,33,0.0,0.0,86,0.03,,CLR,0.20,VWS V14.01,2013-10-04 21:27:00,
2013-10-04 15:33:00,36.8,32.4,30.50,NNE,22,0.0,2.0,84,0.02,,CLR,0.20,VWS V14.01,2013-10-04 21:33:00,
2013-10-04 15:38:00,36.6,31.9,30.50,NNE,22,0.0,1.0,83,0.02,,CLR,0.20,VWS V14.01,2013-10-04 21:38:00,
2013-10-04 15:43:00,36.6,32.5,30.50,NNE,22,0.0,0.0,85,0.02,,CLR,0.21,VWS V14.01,2013-10-04 21:43:00,
2013-10-04 15:48:00,36.5,32.7,30.50,NNE,22,0.0,0.0,86,0.02,,CLR,0.21,VWS V14.01,2013-10-04 21:48:00,
2013-10-04 15:53:00,36.3,32.8,30.50,NNE,22,0.0,0.0,87,0.02,,CLR,0.21,VWS V14.01,2013-10-04 21:53:00,
2013-10-04 15:58:00,36.2,32.7,30.50,NNE,22,0.0,0.0,87,0.02,,CLR,0.21,VWS V14.01,2013-10-04 21:58:00,
2013-10-04 16:03:00,36.0,32.5,30.50,NE,52,1.0,2.0,87,0.01,,CLR,0.21,VWS V14.01,2013-10-04 22:03:00,
2013-10-04 16:08:00,35.9,32.4,30.50,NE,52,0.0,0.0,87,0.01,,CLR,0.21,VWS V14.01,2013-10-04 22:08:00,
2013-10-04 16:13:00,35.9,32.7,30.50,NE,52,0.0,0.0,88,0.01,,CLR,0.21,VWS V14.01,2013-10-04 22:13:00,
2013-10-04 16:18:00,36.0,32.5,30.50,ESE,113,0.0,2.0,87,0.01,,CLR,0.21,VWS V14.01,2013-10-04 22:18:00,
2013-10-04 16:23:00,36.0,32.8,30.50,ESE,113,0.0,0.0,88,0.01,,CLR,0.21,VWS V14.01,2013-10-04 22:23:00,
2013-10-04 16:28:00,36.0,32.8,30.50,ESE,113,0.0,0.0,88,0.01,,CLR,0.21,VWS V14.01,2013-10-04 22:28:00,
2013-10-04 16:33:00,36.0,32.8,30.50,ESE,113,0.0,0.0,88,0.01,,CLR,0.21,VWS V14.01,2013-10-04 22:33:00,
2013-10-04 16:38:00,36.0,32.8,30.50,SW,218,1.0,1.0,88,0.01,,CLR,0.21,VWS V14.01,2013-10-04 22:38:00,
2013-10-04 16:43:00,35.9,32.4,30.50,SW,218,0.0,1.0,87,0.01,,CLR,0.21,VWS V14.01,2013-10-04 22:43:00,
2013-10-04 16:48:00,35.8,32.6,30.50,SW,218,0.0,0.0,88,0.00,,CLR,0.21,VWS V14.01,2013-10-04 22:48:00,
2013-10-04 16:53:00,35.8,32.6,30.50,SW,218,0.0,0.0,88,0.00,,CLR,0.21,VWS V14.01,2013-10-04 22:53:00,
2013-10-04 16:58:00,35.8,32.6,30.50,SW,218,0.0,0.0,88,0.00,,CLR,0.21,VWS V14.01,2013-10-04 22:58:00,
2013-10-04 17:03:00,35.8,32.6,30.49,SW,218,0.0,0.0,88,0.00,,CLR,0.21,VWS V14.01,2013-10-04 23:03:00,
2013-10-04 17:08:00,35.6,32.4,30.49,SW,218,0.0,0.0,88,0.00,,CLR,0.21,VWS V14.01,2013-10-04 23:08:00,
2013-10-04 17:13:00,35.6,32.4,30.49,SW,218,0.0,0.0,88,0.00,,CLR,0.21,VWS V14.01,2013-10-04 23:13:00,
2013-10-04 17:18:00,35.6,32.4,30.50,NNE,17,0.0,2.0,88,0.00,,CLR,0.21,VWS V14.01,2013-10-04 23:18:00,
2013-10-04 17:24:00,35.6,32.4,30.50,NNE,17,0.0,0.0,88,0.00,,CLR,0.21,VWS V14.01,2013-10-04 23:24:00,
2013-10-04 17:29:00,35.6,32.4,30.50,NNE,17,0.0,0.0,88,0.00,,CLR,0.21,VWS V14.01,2013-10-04 23:29:00,
2013-10-04 17:34:00,35.5,32.3,30.50,NNE,17,0.0,0.0,88,0.00,,CLR,0.21,VWS V14.01,2013-10-04 23:34:00,
2013-10-04 17:39:00,35.3,32.4,30.50,NNE,17,0.0,0.0,89,0.00,,CLR,0.21,VWS V14.01,2013-10-04 23:39:00,
2013-10-04 17:44:00,35.3,32.1,30.50,NNE,17,0.0,0.0,88,0.00,,CLR,0.21,VWS V14.01,2013-10-04 23:44:00,
2013-10-04 17:49:00,35.3,32.4,30.50,NNE,17,0.0,0.0,89,0.00,,CLR,0.21,VWS V14.01,2013-10-04 23:49:00,
2013-10-04 17:54:00,35.2,32.3,30.50,NNE,17,0.0,0.0,89,0.00,,CLR,0.21,VWS V14.01,2013-10-04 23:54:00,
2013-10-04 17:59:00,35.3,32.4,30.50,NNE,17,0.0,0.0,89,0.00,,CLR,0.21,VWS V14.01,2013-10-04 23:59:00,
2013-10-04 18:04:00,35.2,32.3,30.50,NNE,17,0.0,0.0,89,0.00,,CLR,0.21,VWS V14.01,2013-10-05 00:04:00,
2013-10-04 18:09:00,35.2,32.3,30.50,NNE,17,0.0,0.0,89,0.00,,CLR,0.21,VWS V14.01,2013-10-05 00:09:00,
2013-10-04 18:14:00,35.0,32.1,30.50,NNE,17,0.0,0.0,89,0.00,,CLR,0.21,VWS V14.01,2013-10-05 00:14:00,
2013-10-04 18:19:00,35.0,32.1,30.50,NNE,17,0.0,0.0,89,0.00,,CLR,0.21,VWS V14.01,2013-10-05 00:19:00,
2013-10-04 18:24:00,34.9,32.0,30.50,NNE,17,0.0,0.0,89,0.00,,CLR,0.21,VWS V14.01,2013-10-05 00:24:00,
2013-10-04 18:29:00,34.9,32.3,30.50,NNE,17,0.0,0.0,90,0.01,,CLR,0.22,VWS V14.01,2013-10-05 00:29:00,
2013-10-04 18:34:00,34.7,31.8,30.49,NNE,17,0.0,0.0,89,0.01,,CLR,0.22,VWS V14.01,2013-10-05 00:34:00,
2013-10-04 18:39:00,34.6,32.0,30.49,NNE,17,0.0,0.0,90,0.01,,CLR,0.22,VWS V14.01,2013-10-05 00:39:00,
2013-10-04 18:44:00,34.4,31.8,30.49,NNE,17,0.0,0.0,90,0.01,,CLR,0.22,VWS V14.01,2013-10-05 00:44:00,
2013-10-04 18:49:00,34.3,31.7,30.50,NNE,17,0.0,0.0,90,0.01,,CLR,0.22,VWS V14.01,2013-10-05 00:49:00,
2013-10-04 18:55:00,34.1,31.5,30.50,NNE,17,0.0,0.0,90,0.01,,CLR,0.22,VWS V14.01,2013-10-05 00:55:00,
2013-10-04 19:00:00,34.0,31.4,30.50,NNE,17,0.0,0.0,90,0.01,,CLR,0.22,VWS V14.01,2013-10-05 01:00:00,
2013-10-04 19:05:00,33.8,31.2,30.50,NNE,17,0.0,0.0,90,0.01,,CLR,0.22,VWS V14.01,2013-10-05 01:05:00,
2013-10-04 19:10:00,33.7,31.1,30.50,NNE,17,0.0,0.0,90,0.01,,CLR,0.22,VWS V14.01,2013-10-05 01:10:00,
2013-10-04 19:15:00,33.5,30.9,30.50,NNE,17,0.0,0.0,90,0.01,,CLR,0.22,VWS V14.01,2013-10-05 01:15:00,
2013-10-04 19:20:00,33.1,30.2,30.51,NNE,17,0.0,0.0,89,0.01,,CLR,0.22,VWS V14.01,2013-10-05 01:20:00,
2013-10-04 19:25:00,32.8,29.9,30.51,NNE,17,0.0,0.0,89,0.01,,CLR,0.22,VWS V14.01,2013-10-05 01:25:00,
2013-10-04 19:30:00,32.7,29.8,30.51,NNE,17,0.0,0.0,89,0.00,,CLR,0.22,VWS V14.01,2013-10-05 01:30:00,
2013-10-04 19:35:00,32.5,29.6,30.51,NNE,17,0.0,0.0,89,0.00,,CLR,0.22,VWS V14.01,2013-10-05 01:35:00,
2013-10-04 19:40:00,32.5,29.6,30.51,NNE,17,0.0,0.0,89,0.00,,CLR,0.22,VWS V14.01,2013-10-05 01:40:00,
2013-10-04 19:45:00,32.5,29.9,30.51,NNE,17,0.0,0.0,90,0.00,,CLR,0.22,VWS V14.01,2013-10-05 01:45:00,
2013-10-04 19:50:00,32.5,29.6,30.51,NNE,17,0.0,0.0,89,0.00,,CLR,0.22,VWS V14.01,2013-10-05 01:50:00,
2013-10-04 19:55:00,32.5,29.6,30.51,NNE,17,0.0,0.0,89,0.00,,CLR,0.22,VWS V14.01,2013-10-05 01:55:00,
2013-10-04 20:00:00,32.5,29.6,30.51,NNE,17,0.0,0.0,89,0.00,,CLR,0.22,VWS V14.01,2013-10-05 02:00:00,
2013-10-04 20:05:00,32.7,29.8,30.51,NNE,17,0.0,0.0,89,0.00,,CLR,0.22,VWS V14.01,2013-10-05 02:05:00,
2013-10-04 20:10:00,32.7,29.8,30.51,NNE,17,0.0,0.0,89,0.00,,CLR,0.22,VWS V14.01,2013-10-05 02:10:00,
2013-10-04 20:15:00,32.7,29.8,30.51,NNE,17,0.0,0.0,89,0.00,,CLR,0.22,VWS V14.01,2013-10-05 02:15:00,
2013-10-04 20:21:00,32.7,29.5,30.51,NNE,17,0.0,0.0,88,0.00,,CLR,0.22,VWS V14.01,2013-10-05 02:21:00,
2013-10-04 20:26:00,32.7,29.5,30.51,NNE,17,0.0,0.0,88,0.00,,CLR,0.22,VWS V14.01,2013-10-05 02:26:00,
2013-10-04 20:31:00,32.5,29.4,30.51,NNE,17,0.0,0.0,88,0.00,,CLR,0.22,VWS V14.01,2013-10-05 02:31:00,
2013-10-04 20:36:00,32.5,29.4,30.51,NNE,17,0.0,0.0,88,0.00,,CLR,0.22,VWS V14.01,2013-10-05 02:36:00,
2013-10-04 20:41:00,32.4,29.2,30.51,NNE,17,0.0,0.0,88,0.00,,CLR,0.22,VWS V14.01,2013-10-05 02:41:00,
2013-10-04 20:46:00,32.4,29.0,30.51,NNE,17,0.0,0.0,87,0.00,,CLR,0.22,VWS V14.01,2013-10-05 02:46:00,
2013-10-04 20:51:00,32.4,29.0,30.53,NNE,17,0.0,0.0,87,0.00,,CLR,0.22,VWS V14.01,2013-10-05 02:51:00,
2013-10-04 20:56:00,32.4,29.0,30.53,NNE,17,0.0,0.0,87,0.00,,CLR,0.22,VWS V14.01,2013-10-05 02:56:00,
2013-10-04 21:01:00,32.2,28.8,30.53,NNE,17,0.0,0.0,87,0.00,,CLR,0.22,VWS V14.01,2013-10-05 03:01:00,
2013-10-04 21:07:00,32.2,28.8,30.53,NNE,17,0.0,0.0,87,0.00,,CLR,0.22,VWS V14.01,2013-10-05 03:07:00,
2013-10-04 21:12:00,32.1,28.7,30.53,NNE,17,0.0,0.0,87,0.00,,CLR,0.22,VWS V14.01,2013-10-05 03:12:00,
2013-10-04 21:17:00,31.9,28.5,30.53,NNE,17,0.0,0.0,87,0.00,,CLR,0.22,VWS V14.01,2013-10-05 03:17:00,
2013-10-04 21:22:00,31.9,28.5,30.51,NNE,17,0.0,0.0,87,0.00,,CLR,0.22,VWS V14.01,2013-10-05 03:22:00,
2013-10-04 21:27:00,31.8,28.4,30.51,NNE,17,0.0,0.0,87,0.00,,CLR,0.22,VWS V14.01,2013-10-05 03:27:00,
2013-10-04 21:32:00,31.6,28.2,30.51,NNE,17,0.0,0.0,87,0.00,,CLR,0.22,VWS V14.01,2013-10-05 03:32:00,
2013-10-04 21:37:00,31.6,28.2,30.51,NNE,17,0.0,0.0,87,0.00,,CLR,0.22,VWS V14.01,2013-10-05 03:37:00,
2013-10-04 21:42:00,31.5,28.1,30.51,NNE,17,0.0,0.0,87,0.00,,CLR,0.22,VWS V14.01,2013-10-05 03:42:00,
2013-10-04 21:47:00,31.3,27.9,30.51,NNE,17,0.0,0.0,87,0.00,,CLR,0.22,VWS V14.01,2013-10-05 03:47:00,
2013-10-04 21:52:00,31.2,27.8,30.51,NNE,17,0.0,0.0,87,0.00,,CLR,0.22,VWS V14.01,2013-10-05 03:52:00,
2013-10-04 21:57:00,31.0,27.6,30.51,NNE,17,0.0,0.0,87,0.00,,CLR,0.22,VWS V14.01,2013-10-05 03:57:00,
2013-10-04 22:01:00,31.0,27.9,30.51,NNE,17,0.0,0.0,88,0.00,,CLR,0.22,VWS V14.01,2013-10-05 04:01:00,
2013-10-04 22:02:00,31.0,27.9,30.51,NNE,17,0.0,0.0,88,0.00,,CLR,0.22,VWS V14.01,2013-10-05 04:02:00,
2013-10-04 22:03:00,31.0,27.9,30.51,NNE,17,0.0,0.0,88,0.00,,CLR,0.22,VWS V14.01,2013-10-05 04:03:00,
2013-10-04 22:04:00,31.0,27.9,30.51,NNE,17,0.0,0.0,88,0.00,,CLR,0.22,VWS V14.01,2013-10-05 04:04:00,
2013-10-04 22:05:00,30.9,27.8,30.51,NNE,17,0.0,0.0,88,0.00,,CLR,0.22,VWS V14.01,2013-10-05 04:05:00,
2013-10-04 22:10:00,30.9,27.8,30.51,NNE,17,0.0,0.0,88,0.00,,CLR,0.22,VWS V14.01,2013-10-05 04:10:00,
2013-10-04 22:15:00,30.9,27.8,30.51,NNE,17,0.0,0.0,88,0.00,,CLR,0.22,VWS V14.01,2013-10-05 04:15:00,
2013-10-04 22:20:00,30.9,28.0,30.50,NNE,17,0.0,0.0,89,0.00,,CLR,0.22,VWS V14.01,2013-10-05 04:20:00,
2013-10-04 22:25:00,30.9,28.0,30.50,NNE,17,0.0,0.0,89,0.00,,CLR,0.22,VWS V14.01,2013-10-05 04:25:00,
2013-10-04 22:30:00,30.7,27.6,30.50,NNE,17,0.0,0.0,88,0.00,,CLR,0.22,VWS V14.01,2013-10-05 04:30:00,
2013-10-04 22:36:00,30.7,27.6,30.50,NNE,17,0.0,0.0,88,0.00,,CLR,0.22,VWS V14.01,2013-10-05 04:36:00,
2013-10-04 22:41:00,30.7,27.6,30.50,NNE,17,0.0,0.0,88,0.00,,CLR,0.22,VWS V14.01,2013-10-05 04:41:00,
2013-10-04 22:46:00,30.7,27.9,30.50,NNE,17,0.0,0.0,89,0.00,,CLR,0.22,VWS V14.01,2013-10-05 04:46:00,
2013-10-04 22:51:00,30.7,27.9,30.50,NNE,17,0.0,0.0,89,0.00,,CLR,0.22,VWS V14.01,2013-10-05 04:51:00,
2013-10-04 22:56:00,30.7,27.6,30.50,NNE,17,0.0,0.0,88,0.00,,CLR,0.22,VWS V14.01,2013-10-05 04:56:00,
2013-10-04 23:01:00,30.7,27.6,30.50,NNE,17,0.0,0.0,88,0.00,,CLR,0.22,VWS V14.01,2013-10-05 05:01:00,
2013-10-04 23:06:00,30.7,27.6,30.50,NNE,17,0.0,0.0,88,0.00,,CLR,0.22,VWS V14.01,2013-10-05 05:06:00,
2013-10-04 23:11:00,30.6,27.5,30.50,NNE,17,0.0,0.0,88,0.00,,CLR,0.22,VWS V14.01,2013-10-05 05:11:00,
2013-10-04 23:16:00,30.6,27.5,30.50,NNE,17,0.0,0.0,88,0.00,,CLR,0.22,VWS V14.01,2013-10-05 05:16:00,
2013-10-04 23:21:00,30.4,27.3,30.49,NNE,17,0.0,0.0,88,0.00,,CLR,0.22,VWS V14.01,2013-10-05 05:21:00,
2013-10-04 23:26:00,30.4,27.3,30.49,NNE,17,0.0,0.0,88,0.00,,CLR,0.22,VWS V14.01,2013-10-05 05:26:00,
2013-10-04 23:31:00,30.4,27.3,30.49,NNE,17,0.0,0.0,88,0.00,,CLR,0.22,VWS V14.01,2013-10-05 05:31:00,
2013-10-04 23:36:00,30.4,27.3,30.49,NNE,17,0.0,0.0,88,0.00,,CLR,0.22,VWS V14.01,2013-10-05 05:36:00,
2013-10-04 23:41:00,30.3,27.2,30.49,NNE,17,0.0,0.0,88,0.00,,CLR,0.22,VWS V14.01,2013-10-05 05:41:00,
2013-10-04 23:46:00,30.1,26.7,30.49,NNE,17,0.0,0.0,87,0.00,,CLR,0.22,VWS V14.01,2013-10-05 05:46:00,
2013-10-04 23:51:00,30.0,26.3,30.49,NNE,17,0.0,0.0,86,0.00,,CLR,0.22,VWS V14.01,2013-10-05 05:51:00,
2013-10-04 23:56:00,30.0,26.3,30.49,NNE,17,0.0,0.0,86,0.00,,CLR,0.22,VWS V14.01,2013-10-05 05:56:00,